createdAt,value
2023-04-02T00:02:20.255Z,99701.64
2023-04-02T00:05:16.063Z,99701.27
2023-04-02T00:07:44.150Z,99705.66
2023-04-02T00:10:27.368Z,99704.20
2023-04-02T00:13:00.988Z,99704.70
2023-04-02T00:15:27.962Z,99703.73
2023-04-02T00:17:54.072Z,99695.92
2023-04-02T00:20:24.127Z,99695.85
2023-04-02T00:22:50.094Z,99693.46
2023-04-02T00:25:16.074Z,99692.22
2023-04-02T00:27:42.556Z,99690.63
2023-04-02T00:30:12.366Z,99694.36
2023-04-02T00:32:39.129Z,99695.59
2023-04-02T00:35:18.439Z,99693.34
2023-04-02T00:37:45.482Z,99691.45
2023-04-02T00:40:25.864Z,99690.95
2023-04-02T00:42:55.265Z,99693.43
2023-04-02T00:45:30.234Z,99694.98
2023-04-02T00:47:58.783Z,99695.88
2023-04-02T00:50:39.313Z,99699.23
2023-04-02T00:53:21.210Z,99697.82
2023-04-02T00:55:47.982Z,99702.27
2023-04-02T00:58:33.896Z,99698.25
2023-04-02T01:01:00.869Z,99698.55
2023-04-02T01:03:34.000Z,99705.41
2023-04-02T01:06:09.878Z,99708.81
2023-04-02T01:09:06.342Z,99706.33
2023-04-02T01:11:41.164Z,99701.40
2023-04-02T01:14:19.348Z,99701.07
2023-04-02T01:17:01.342Z,99698.91
2023-04-02T01:19:44.329Z,99699.01
2023-04-02T01:22:20.747Z,99701.77
2023-04-02T01:24:46.899Z,99699.02
2023-04-02T01:27:28.065Z,99699.19
2023-04-02T01:29:59.677Z,99697.14
2023-04-02T01:32:29.032Z,99692.78
2023-04-02T01:34:56.675Z,99689.68
2023-04-02T01:37:44.224Z,99686.21
2023-04-02T01:40:13.818Z,99693.02
2023-04-02T01:43:20.173Z,99693.29
2023-04-02T01:45:46.740Z,99695.02
2023-04-02T01:48:19.303Z,99697.85
2023-04-02T01:50:49.389Z,99706.12
2023-04-02T01:53:17.485Z,99707.13
2023-04-02T01:55:53.393Z,99707.73
2023-04-02T01:58:24.705Z,99705.73
2023-04-02T02:01:11.642Z,99716.08
2023-04-02T02:03:40.853Z,99712.52
2023-04-02T02:06:12.226Z,99717.74
2023-04-02T02:08:46.173Z,99717.06
2023-04-02T02:11:20.976Z,99721.20
2023-04-02T02:13:52.526Z,99727.48
2023-04-02T02:16:19.040Z,99727.77
2023-04-02T02:18:51.597Z,99732.14
2023-04-02T02:21:38.076Z,99731.96
2023-04-02T02:24:16.469Z,99732.04
2023-04-02T02:26:45.679Z,99734.74
2023-04-02T02:29:17.907Z,99736.27
2023-04-02T02:31:47.039Z,99739.56
2023-04-02T02:34:23.174Z,99739.15
2023-04-02T02:36:58.228Z,99737.23
2023-04-02T02:39:31.681Z,99731.77
2023-04-02T02:42:02.833Z,99737.04
2023-04-02T02:44:32.602Z,99739.46
2023-04-02T02:47:28.809Z,99742.85
2023-04-02T02:50:17.556Z,99743.69
2023-04-02T02:52:49.856Z,99748.56
2023-04-02T02:55:21.300Z,99754.59
2023-04-02T02:58:19.476Z,99765.61
2023-04-02T03:00:54.791Z,99770.40
2023-04-02T03:03:24.305Z,99769.99
2023-04-02T03:06:04.790Z,99774.37
2023-04-02T03:08:44.138Z,99777.91
2023-04-02T03:11:34.227Z,99780.36
2023-04-02T03:14:33.536Z,99786.25
2023-04-02T03:17:14.198Z,99793.84
2023-04-02T03:19:49.946Z,99801.23
2023-04-02T03:22:31.426Z,99792.58
2023-04-02T03:25:05.213Z,99801.60
2023-04-02T03:27:40.651Z,99802.10
2023-04-02T03:30:27.279Z,99810.73
2023-04-02T03:33:08.811Z,99807.55
2023-04-02T03:35:40.538Z,99809.34
2023-04-02T03:38:19.896Z,99820.39
2023-04-02T03:40:59.143Z,99821.77
2023-04-02T03:43:36.790Z,99825.66
2023-04-02T03:46:38.901Z,99825.72
2023-04-02T03:49:10.273Z,99827.95
2023-04-02T03:51:52.212Z,99827.42
2023-04-02T03:54:19.095Z,99831.70
2023-04-02T03:56:46.890Z,99831.73
2023-04-02T03:59:59.168Z,99831.02
2023-04-02T04:02:25.592Z,99838.45
2023-04-02T04:04:54.328Z,99847.67
2023-04-02T04:07:42.163Z,99847.35
2023-04-02T04:10:17.899Z,99847.27
2023-04-02T04:12:47.491Z,99849.35
2023-04-02T04:15:31.057Z,99848.48
2023-04-02T04:18:09.970Z,99843.69
2023-04-02T04:20:58.084Z,99841.61
2023-04-02T04:23:37.834Z,99840.75
2023-04-02T04:26:25.940Z,99841.81
2023-04-02T04:29:11.845Z,99844.48
2023-04-02T04:31:46.353Z,99842.25
2023-04-02T04:34:24.375Z,99844.83
2023-04-02T04:36:56.926Z,99852.56
2023-04-02T04:40:01.336Z,99854.98
2023-04-02T04:42:33.072Z,99860.54
2023-04-02T04:45:30.642Z,99862.26
2023-04-02T04:48:06.957Z,99873.46
2023-04-02T04:50:48.197Z,99871.61
2023-04-02T04:53:26.286Z,99874.75
2023-04-02T04:55:57.000Z,99875.73
2023-04-02T04:58:43.575Z,99883.71
2023-04-02T05:01:14.978Z,99889.13
2023-04-02T05:03:55.201Z,99896.83
2023-04-02T05:06:33.843Z,99906.73
2023-04-02T05:09:07.725Z,99918.05
2023-04-02T05:12:07.411Z,99929.28
2023-04-02T05:14:39.689Z,99932.70
2023-04-02T05:17:28.973Z,99939.92
2023-04-02T05:20:25.559Z,99942.11
2023-04-02T05:23:00.218Z,99945.77
2023-04-02T05:25:29.272Z,99948.69
2023-04-02T05:28:18.366Z,99953.78
2023-04-02T05:31:02.503Z,99960.25
2023-04-02T05:33:36.044Z,99959.23
2023-04-02T05:36:27.227Z,99963.30
2023-04-02T05:38:57.160Z,99966.73
2023-04-02T05:41:40.506Z,99971.52
2023-04-02T05:44:23.790Z,99978.23
2023-04-02T05:47:01.114Z,99983.68
2023-04-02T05:49:56.232Z,99986.30
2023-04-02T05:52:30.999Z,100000.67
2023-04-02T05:55:12.518Z,100004.87
2023-04-02T05:57:56.712Z,100019.54
2023-04-02T06:00:51.226Z,100027.46
2023-04-02T06:03:36.501Z,100031.77
2023-04-02T06:06:18.407Z,100042.35
2023-04-02T06:09:00.318Z,100044.86
2023-04-02T06:11:41.606Z,100047.26
2023-04-02T06:14:13.557Z,100047.51
2023-04-02T06:16:40.183Z,100052.81
2023-04-02T06:19:21.851Z,100055.40
2023-04-02T06:21:50.954Z,100059.39
2023-04-02T06:24:24.745Z,100066.17
2023-04-02T06:27:05.206Z,100072.81
2023-04-02T06:29:40.328Z,100082.70
2023-04-02T06:32:12.023Z,100088.62
2023-04-02T06:34:41.949Z,100093.21
2023-04-02T06:37:25.306Z,100097.61
2023-04-02T06:39:58.573Z,100102.30
2023-04-02T06:42:38.100Z,100111.33
2023-04-02T06:45:29.646Z,100114.29
2023-04-02T06:48:20.353Z,100117.17
2023-04-02T06:51:12.686Z,100119.54
2023-04-02T06:53:50.984Z,100119.87
2023-04-02T06:56:37.712Z,100121.58
2023-04-02T06:59:06.847Z,100124.14
2023-04-02T07:01:40.431Z,100126.48
2023-04-02T07:04:08.241Z,100130.34
2023-04-02T07:06:39.216Z,100120.77
2023-04-02T07:09:06.037Z,100122.61
2023-04-02T07:11:33.653Z,100123.92
2023-04-02T07:14:02.384Z,100131.07
2023-04-02T07:16:31.418Z,100135.16
2023-04-02T07:18:58.359Z,100138.41
2023-04-02T07:21:27.055Z,100144.20
2023-04-02T07:23:53.829Z,100147.16
2023-04-02T07:26:23.254Z,100152.20
2023-04-02T07:28:49.630Z,100161.58
2023-04-02T07:31:20.376Z,100164.23
2023-04-02T07:33:47.293Z,100171.84
2023-04-02T07:36:22.459Z,100181.45
2023-04-02T07:38:49.155Z,100185.30
2023-04-02T07:41:15.603Z,100189.38
2023-04-02T07:43:42.423Z,100189.16
2023-04-02T07:46:10.207Z,100192.87
2023-04-02T07:48:36.345Z,100194.70
2023-04-02T07:51:02.714Z,100194.20
2023-04-02T07:53:31.394Z,100198.30
2023-04-02T07:56:02.659Z,100196.12
2023-04-02T07:58:30.306Z,100198.13
2023-04-02T08:00:56.834Z,100198.79
2023-04-02T08:03:23.455Z,100202.77
2023-04-02T08:05:55.452Z,100201.20
2023-04-02T08:08:23.703Z,100199.64
2023-04-02T08:10:50.207Z,100204.15
2023-04-02T08:13:17.698Z,100205.21
2023-04-02T08:15:43.767Z,100208.80
2023-04-02T08:18:10.942Z,100212.49
2023-04-02T08:20:37.503Z,100212.17
2023-04-02T08:23:04.279Z,100213.77
2023-04-02T08:25:30.258Z,100214.44
2023-04-02T08:27:56.272Z,100218.39
2023-04-02T08:30:22.651Z,100227.34
2023-04-02T08:32:48.766Z,100235.73
2023-04-02T08:35:16.461Z,100240.72
2023-04-02T08:37:42.655Z,100249.89
2023-04-02T08:40:22.511Z,100254.19
2023-04-02T08:43:23.739Z,100256.61
2023-04-02T08:46:04.108Z,100246.41
2023-04-02T08:48:32.958Z,100246.92
2023-04-02T08:50:59.636Z,100246.17
2023-04-02T08:53:31.276Z,100246.33
2023-04-02T08:56:19.748Z,100242.79
2023-04-02T08:59:22.490Z,100239.79
2023-04-02T09:01:57.776Z,100236.73
2023-04-02T09:04:26.283Z,100236.10
2023-04-02T09:06:56.049Z,100245.90
2023-04-02T09:09:23.095Z,100255.55
2023-04-02T09:12:00.450Z,100260.16
2023-04-02T09:14:42.718Z,100260.77
2023-04-02T09:17:23.705Z,100261.33
2023-04-02T09:20:20.792Z,100261.91
2023-04-02T09:22:50.525Z,100262.05
2023-04-02T09:25:26.535Z,100264.11
2023-04-02T09:27:55.461Z,100260.96
2023-04-02T09:30:33.344Z,100259.20
2023-04-02T09:33:03.567Z,100263.35
2023-04-02T09:35:31.977Z,100263.61
2023-04-02T09:38:07.096Z,100258.45
2023-04-02T09:40:41.649Z,100260.58
2023-04-02T09:43:15.145Z,100259.48
2023-04-02T09:45:42.882Z,100259.78
2023-04-02T09:48:38.574Z,100262.20
2023-04-02T09:51:06.452Z,100259.48
2023-04-02T09:53:39.895Z,100260.05
2023-04-02T09:56:13.671Z,100260.14
2023-04-02T09:58:41.891Z,100264.45
2023-04-02T10:01:33.400Z,100259.36
2023-04-02T10:04:02.873Z,100255.14
2023-04-02T10:06:31.236Z,100256.30
2023-04-02T10:08:57.684Z,100256.89
2023-04-02T10:11:45.380Z,100251.63
2023-04-02T10:14:21.798Z,100244.12
2023-04-02T10:16:53.276Z,100248.98
2023-04-02T10:19:32.822Z,100245.54
2023-04-02T10:22:04.613Z,100244.70
2023-04-02T10:24:30.876Z,100247.30
2023-04-02T10:27:30.872Z,100246.61
2023-04-02T10:30:15.317Z,100244.95
2023-04-02T10:32:59.626Z,100243.23
2023-04-02T10:35:38.292Z,100244.77
2023-04-02T10:38:13.371Z,100249.96
2023-04-02T10:40:47.665Z,100245.56
2023-04-02T10:43:42.779Z,100243.24
2023-04-02T10:46:31.787Z,100242.02
2023-04-02T10:49:19.172Z,100243.97
2023-04-02T10:51:54.128Z,100240.17
2023-04-02T10:54:40.815Z,100240.91
2023-04-02T10:57:21.549Z,100237.96
2023-04-02T11:00:10.577Z,100233.77
2023-04-02T11:02:52.178Z,100235.52
2023-04-02T11:05:42.698Z,100235.71
2023-04-02T11:08:37.493Z,100237.14
2023-04-02T11:11:29.842Z,100247.48
2023-04-02T11:14:01.545Z,100249.05
2023-04-02T11:16:27.975Z,100256.27
2023-04-02T11:19:15.388Z,100262.25
2023-04-02T11:21:57.170Z,100270.93
2023-04-02T11:24:25.434Z,100278.27
2023-04-02T11:26:53.615Z,100287.14
2023-04-02T11:29:21.709Z,100292.47
2023-04-02T11:31:50.409Z,100320.98
2023-04-02T11:34:42.365Z,100314.08
2023-04-02T11:37:28.429Z,100317.59
2023-04-02T11:39:58.547Z,100327.52
2023-04-02T11:42:32.997Z,100325.56
2023-04-02T11:45:23.731Z,100328.48
2023-04-02T11:47:59.014Z,100324.87
2023-04-02T11:50:35.724Z,100324.83
2023-04-02T11:53:11.026Z,100320.44
2023-04-02T11:55:42.106Z,100319.08
2023-04-02T11:58:28.366Z,100313.95
2023-04-02T12:01:17.593Z,100310.48
2023-04-02T12:04:20.240Z,100305.95
2023-04-02T12:06:55.051Z,100305.90
2023-04-02T12:09:49.058Z,100304.55
2023-04-02T12:12:26.808Z,100298.45
2023-04-02T12:14:54.572Z,100303.63
2023-04-02T12:17:33.378Z,100297.38
2023-04-02T12:20:00.811Z,100290.42
2023-04-02T12:22:35.046Z,100284.33
2023-04-02T12:25:06.510Z,100278.51
2023-04-02T12:27:37.543Z,100276.58
2023-04-02T12:30:19.863Z,100270.83
2023-04-02T12:32:47.210Z,100259.73
2023-04-02T12:35:43.438Z,100255.61
2023-04-02T12:38:24.439Z,100253.67
2023-04-02T12:40:55.542Z,100241.33
2023-04-02T12:43:27.357Z,100233.90
2023-04-02T12:45:55.708Z,100224.86
2023-04-02T12:48:22.700Z,100223.30
2023-04-02T12:53:40.832Z,100214.30
2023-04-02T12:56:10.554Z,100211.92
2023-04-02T12:58:40.580Z,100212.02
2023-04-02T13:01:17.907Z,100208.66
2023-04-02T13:03:59.297Z,100200.67
2023-04-02T13:06:26.476Z,100192.73
2023-04-02T13:08:54.111Z,100187.34
2023-04-02T13:11:22.029Z,100180.02
2023-04-02T13:13:49.798Z,100170.85
2023-04-02T13:16:18.917Z,100169.68
2023-04-02T13:18:47.298Z,100167.64
2023-04-02T13:21:16.032Z,100161.31
2023-04-02T13:23:43.278Z,100156.52
2023-04-02T13:26:24.098Z,100156.41
2023-04-02T13:29:03.685Z,100154.45
2023-04-02T13:31:36.664Z,100152.97
2023-04-02T13:34:02.824Z,100153.99
2023-04-02T13:36:30.054Z,100150.90
2023-04-02T13:38:56.854Z,100148.73
2023-04-02T13:41:31.550Z,100146.74
2023-04-02T13:44:00.666Z,100151.50
2023-04-02T13:46:30.046Z,100149.38
2023-04-02T13:48:57.927Z,100156.88
2023-04-02T13:51:46.539Z,100152.59
2023-04-02T13:54:21.249Z,100149.67
2023-04-02T13:56:48.349Z,100150.48
2023-04-02T13:59:15.624Z,100156.03
2023-04-02T14:01:44.107Z,100152.55
2023-04-02T14:04:17.853Z,100150.18
2023-04-02T14:07:08.018Z,100154.90
2023-04-02T14:09:55.920Z,100148.94
2023-04-02T14:12:31.425Z,100147.92
2023-04-02T14:15:30.832Z,100156.01
2023-04-02T14:18:12.131Z,100159.83
2023-04-02T14:20:52.187Z,100156.98
2023-04-02T14:23:37.714Z,100157.02
2023-04-02T14:26:28.663Z,100157.40
2023-04-02T14:29:23.348Z,100155.94
2023-04-02T14:32:18.370Z,100158.09
2023-04-02T14:35:07.827Z,100160.08
2023-04-02T14:37:41.535Z,100163.42
2023-04-02T14:40:33.785Z,100161.42
2023-04-02T14:43:15.824Z,100162.80
2023-04-02T14:46:02.176Z,100165.19
2023-04-02T14:48:53.673Z,100167.60
2023-04-02T14:51:37.699Z,100172.02
2023-04-02T14:54:07.933Z,100172.11
2023-04-02T14:56:39.468Z,100174.95
2023-04-02T14:59:56.046Z,100173.59
2023-04-02T15:03:00.201Z,100167.00
2023-04-02T15:05:40.990Z,100163.60
2023-04-02T15:08:24.188Z,100164.28
2023-04-02T15:10:56.436Z,100166.26
2023-04-02T15:13:30.921Z,100164.39
2023-04-02T15:16:11.022Z,100165.00
2023-04-02T15:18:37.754Z,100167.22
2023-04-02T15:21:28.960Z,100163.15
2023-04-02T15:24:15.440Z,100161.69
2023-04-02T15:27:23.910Z,100164.88
2023-04-02T15:30:16.314Z,100169.25
2023-04-02T15:32:43.421Z,100171.30
2023-04-02T15:35:26.643Z,100171.55
2023-04-02T15:38:04.454Z,100171.41
2023-04-02T15:40:33.370Z,100168.51
2023-04-02T15:43:25.812Z,100170.29
2023-04-02T15:46:13.720Z,100172.76
2023-04-02T15:49:00.598Z,100171.23
2023-04-02T15:52:01.006Z,100174.55
2023-04-02T15:54:35.892Z,100173.17
2023-04-02T15:57:39.962Z,100181.67
2023-04-02T16:00:32.686Z,100184.15
2023-04-02T16:03:07.987Z,100189.73
2023-04-02T16:05:52.323Z,100188.16
2023-04-02T16:08:38.675Z,100189.36
2023-04-02T16:11:14.142Z,100184.09
2023-04-02T16:13:42.035Z,100188.58
2023-04-02T16:16:26.132Z,100190.77
2023-04-02T16:18:52.127Z,100196.66
2023-04-02T16:21:24.033Z,100193.80
2023-04-02T16:23:50.484Z,100195.45
2023-04-02T16:26:28.495Z,100199.05
2023-04-02T16:29:03.505Z,100196.85
2023-04-02T16:31:38.961Z,100197.67
2023-04-02T16:34:21.808Z,100199.82
2023-04-02T16:36:56.849Z,100200.27
2023-04-02T16:39:48.349Z,100205.06
2023-04-02T16:42:19.079Z,100206.05
2023-04-02T16:45:16.923Z,100210.19
2023-04-02T16:47:50.715Z,100210.63
2023-04-02T16:50:38.712Z,100218.61
2023-04-02T16:53:10.516Z,100216.58
2023-04-02T16:55:36.356Z,100220.34
2023-04-02T16:58:20.545Z,100220.83
2023-04-02T17:00:52.268Z,100224.90
2023-04-02T17:03:30.462Z,100226.90
2023-04-02T17:06:18.675Z,100224.70
2023-04-02T17:09:15.623Z,100225.69
2023-04-02T17:11:55.139Z,100220.50
2023-04-02T17:14:29.507Z,100221.11
2023-04-02T17:17:01.617Z,100221.79
2023-04-02T17:19:29.568Z,100225.10
2023-04-02T17:22:04.634Z,100226.77
2023-04-02T17:24:42.112Z,100229.34
2023-04-02T17:27:53.398Z,100230.63
2023-04-02T17:30:36.842Z,100231.07
2023-04-02T17:33:17.652Z,100236.44
2023-04-02T17:36:10.236Z,100243.56
2023-04-02T17:39:01.020Z,100249.26
2023-04-02T17:41:36.556Z,100253.89
2023-04-02T17:44:22.415Z,100258.15
2023-04-02T17:47:23.014Z,100264.74
2023-04-02T17:49:57.709Z,100265.77
2023-04-02T17:52:52.708Z,100266.60
2023-04-02T17:55:47.000Z,100270.52
2023-04-02T17:58:38.199Z,100275.96
2023-04-02T18:01:22.505Z,100279.27
2023-04-02T18:04:03.851Z,100280.83
2023-04-02T18:06:40.268Z,100284.48
2023-04-02T18:09:51.057Z,100289.50
2023-04-02T18:12:34.196Z,100296.94
2023-04-02T18:15:19.088Z,100307.70
2023-04-02T18:17:53.698Z,100317.77
2023-04-02T18:20:26.890Z,100324.50
2023-04-02T18:22:57.713Z,100333.39
2023-04-02T18:25:35.835Z,100340.64
2023-04-02T18:28:23.274Z,100349.48
2023-04-02T18:30:55.235Z,100350.86
2023-04-02T18:33:38.854Z,100355.11
2023-04-02T18:36:33.043Z,100358.20
2023-04-02T18:39:12.677Z,100363.02
2023-04-02T18:42:01.616Z,100364.26
2023-04-02T18:44:50.308Z,100374.39
2023-04-02T18:47:44.900Z,100372.20
2023-04-02T18:50:35.749Z,100373.23
2023-04-02T18:53:12.536Z,100375.02
2023-04-02T18:55:45.318Z,100375.20
2023-04-02T18:58:20.952Z,100381.41
2023-04-02T19:00:52.803Z,100384.60
2023-04-02T19:03:30.257Z,100389.80
2023-04-02T19:06:05.035Z,100388.06
2023-04-02T19:08:38.308Z,100388.20
2023-04-02T19:11:16.619Z,100390.55
2023-04-02T19:13:45.334Z,100395.31
2023-04-02T19:16:27.605Z,100403.30
2023-04-02T19:19:13.249Z,100408.98
2023-04-02T19:22:08.821Z,100408.55
2023-04-02T19:24:56.681Z,100406.08
2023-04-02T19:27:41.168Z,100402.76
2023-04-02T19:30:34.692Z,100408.73
2023-04-02T19:33:16.755Z,100414.65
2023-04-02T19:35:58.607Z,100415.88
2023-04-02T19:38:44.376Z,100416.47
2023-04-02T19:41:35.763Z,100418.55
2023-04-02T19:44:01.925Z,100420.83
2023-04-02T19:46:28.217Z,100424.86
2023-04-02T19:49:21.968Z,100426.52
2023-04-02T19:51:49.218Z,100416.82
2023-04-02T19:54:17.664Z,100416.70
2023-04-02T19:56:47.895Z,100436.57
2023-04-02T19:59:20.612Z,100447.00
2023-04-02T20:01:49.978Z,100452.92
2023-04-02T20:04:19.978Z,100445.59
2023-04-02T20:06:48.795Z,100443.70
2023-04-02T20:09:16.154Z,100445.60
2023-04-02T20:11:42.397Z,100447.66
2023-04-02T20:14:12.742Z,100435.89
2023-04-02T20:16:39.310Z,100421.44
2023-04-02T20:19:08.540Z,100423.23
2023-04-02T20:21:43.003Z,100426.62
2023-04-02T20:24:09.612Z,100427.81
2023-04-02T20:26:38.395Z,100433.95
2023-04-02T20:29:10.461Z,100449.23
2023-04-02T20:31:36.981Z,100454.73
2023-04-02T20:34:05.040Z,100461.58
2023-04-02T20:36:34.092Z,100469.08
2023-04-02T20:39:03.031Z,100467.09
2023-04-02T20:41:33.670Z,100461.08
2023-04-02T20:44:00.435Z,100453.95
2023-04-02T20:46:26.472Z,100444.98
2023-04-02T20:48:52.424Z,100432.73
2023-04-02T20:51:21.852Z,100426.66
2023-04-02T20:53:48.444Z,100440.16
2023-04-02T20:56:17.640Z,100452.92
2023-04-02T20:58:44.010Z,100464.41
2023-04-02T21:01:19.256Z,100463.63
2023-04-02T21:03:45.720Z,100472.86
2023-04-02T21:06:14.345Z,100474.08
2023-04-02T21:08:40.543Z,100475.08
2023-04-02T21:11:08.203Z,100481.91
2023-04-02T21:13:35.965Z,100480.15
2023-04-02T21:16:04.273Z,100478.71
2023-04-02T21:18:31.418Z,100470.88
2023-04-02T21:20:58.444Z,100464.70
2023-04-02T21:23:24.477Z,100454.00
2023-04-02T21:25:58.370Z,100446.21
2023-04-02T21:28:25.144Z,100449.30
2023-04-02T21:30:51.362Z,100452.64
2023-04-02T21:33:17.809Z,100454.25
2023-04-02T21:35:43.788Z,100451.48
2023-04-02T21:38:09.738Z,100451.77
2023-04-02T21:40:35.601Z,100448.02
2023-04-02T21:43:01.480Z,100445.86
2023-04-02T21:45:27.444Z,100443.50
2023-04-02T21:47:53.373Z,100438.80
2023-04-02T21:50:19.305Z,100443.99
2023-04-02T21:52:45.245Z,100447.98
2023-04-02T21:55:11.219Z,100447.73
2023-04-02T21:57:37.249Z,100446.83
2023-04-02T22:00:07.692Z,100452.22
2023-04-02T22:02:33.919Z,100447.49
2023-04-02T22:04:59.897Z,100446.42
2023-04-02T22:07:25.871Z,100447.20
2023-04-02T22:09:51.815Z,100446.42
2023-04-02T22:12:17.762Z,100444.91
2023-04-02T22:17:28.042Z,100443.83
2023-04-02T22:19:54.050Z,100443.80
2023-04-02T22:22:20.086Z,100444.48
2023-04-02T22:24:46.360Z,100443.91
2023-04-02T22:27:12.323Z,100442.84
2023-04-02T22:29:38.247Z,100442.17
2023-04-02T22:32:04.092Z,100440.25
2023-04-02T22:34:31.285Z,100441.53
2023-04-02T22:36:57.291Z,100441.97
2023-04-02T22:39:23.225Z,100445.98
2023-04-02T22:41:49.111Z,100448.36
2023-04-02T22:44:15.268Z,100449.30
2023-04-02T22:46:41.837Z,100449.55
2023-04-02T22:49:07.916Z,100447.98
2023-04-02T22:54:18.021Z,100445.14
2023-04-02T22:56:43.948Z,100445.46
2023-04-02T22:59:09.831Z,100448.25
2023-04-02T23:01:36.021Z,100444.25
2023-04-02T23:04:04.419Z,100444.00
2023-04-02T23:06:30.483Z,100448.89
2023-04-02T23:08:56.489Z,100450.85
2023-04-02T23:11:25.274Z,100452.62
2023-04-02T23:13:53.432Z,100453.02
2023-04-02T23:16:20.671Z,100456.70
2023-04-02T23:18:47.430Z,100456.00
2023-04-02T23:21:14.025Z,100460.84
2023-04-02T23:23:40.480Z,100458.02
2023-04-02T23:26:12.605Z,100460.84
2023-04-02T23:28:39.645Z,100461.21
2023-04-02T23:31:08.146Z,100458.44
2023-04-02T23:33:34.474Z,100456.74
2023-04-02T23:36:06.527Z,100460.30
2023-04-02T23:38:32.444Z,100460.44
2023-04-02T23:40:58.270Z,100457.66
2023-04-02T23:43:24.192Z,100456.33
2023-04-02T23:45:50.485Z,100461.94
2023-04-02T23:48:16.850Z,100459.85
2023-04-02T23:50:45.796Z,100459.25
2023-04-02T23:53:12.667Z,100459.52
2023-04-02T23:55:39.083Z,100458.43
2023-04-02T23:58:05.645Z,100455.67
